createdAt,value
2022-07-28T00:01:00.753Z,44.75
2022-07-28T00:03:28.442Z,44.96
2022-07-28T00:05:56.028Z,44.95
2022-07-28T00:08:23.573Z,44.91
2022-07-28T00:10:52.454Z,44.85
2022-07-28T00:13:20.037Z,44.93
2022-07-28T00:15:47.699Z,45.32
2022-07-28T00:18:15.395Z,45.28
2022-07-28T00:20:43.002Z,45.67
2022-07-28T00:23:10.515Z,46.04
2022-07-28T00:25:38.208Z,45.94
2022-07-28T00:28:07.205Z,45.92
2022-07-28T00:30:34.662Z,46.01
2022-07-28T00:33:02.377Z,45.71
2022-07-28T00:35:32.253Z,46.31
2022-07-28T00:38:00.362Z,46.58
2022-07-28T00:40:42.950Z,46.42
2022-07-28T00:43:11.812Z,46.51
2022-07-28T00:45:39.490Z,46.64
2022-07-28T00:48:07.230Z,46.48
2022-07-28T00:50:34.910Z,46.52
2022-07-28T00:53:02.971Z,46.33
2022-07-28T00:55:32.304Z,46.14
2022-07-28T00:58:21.083Z,46.51
2022-07-28T01:00:48.529Z,46.35
2022-07-28T01:03:16.155Z,46.30
2022-07-28T01:05:48.704Z,46.52
2022-07-28T01:08:22.939Z,47.15
2022-07-28T01:10:57.313Z,46.95
2022-07-28T01:13:33.278Z,46.70
2022-07-28T01:16:04.323Z,46.46
2022-07-28T01:18:35.150Z,47.00
2022-07-28T01:21:05.047Z,47.12
2022-07-28T01:24:04.758Z,47.37
2022-07-28T01:26:44.155Z,47.09
2022-07-28T01:29:22.730Z,47.15
2022-07-28T01:31:55.490Z,48.05
2022-07-28T01:34:28.730Z,47.80
2022-07-28T01:36:59.264Z,47.60
2022-07-28T01:39:30.264Z,47.46
2022-07-28T01:41:59.106Z,47.35
2022-07-28T01:44:27.876Z,47.60
2022-07-28T01:46:58.646Z,47.62
2022-07-28T01:49:27.520Z,48.23
2022-07-28T01:51:57.441Z,48.14
2022-07-28T01:54:28.352Z,48.04
2022-07-28T01:56:57.018Z,48.58
2022-07-28T01:59:25.550Z,48.32
2022-07-28T02:01:53.422Z,48.52
2022-07-28T02:04:23.943Z,48.18
2022-07-28T02:06:52.398Z,48.54
2022-07-28T02:09:20.750Z,48.90
2022-07-28T02:11:50.067Z,48.47
2022-07-28T02:14:19.164Z,49.13
2022-07-28T02:16:49.655Z,48.95
2022-07-28T02:19:18.577Z,48.66
2022-07-28T02:21:48.501Z,49.04
2022-07-28T02:24:18.329Z,49.28
2022-07-28T02:26:51.095Z,49.20
2022-07-28T02:29:48.173Z,49.16
2022-07-28T02:32:12.437Z,49.55
2022-07-28T02:34:58.007Z,49.05
2022-07-28T02:37:27.368Z,49.61
2022-07-28T02:40:00.575Z,49.87
2022-07-28T02:42:29.907Z,49.33
2022-07-28T02:44:59.618Z,49.37
2022-07-28T02:47:29.592Z,49.67
2022-07-28T02:49:59.582Z,49.43
2022-07-28T02:52:29.190Z,49.75
2022-07-28T02:54:58.815Z,50.18
2022-07-28T02:57:26.929Z,49.78
2022-07-28T02:59:55.261Z,50.11
2022-07-28T03:02:23.252Z,50.34
2022-07-28T03:05:01.754Z,49.98
2022-07-28T03:07:32.389Z,50.48
2022-07-28T03:10:00.610Z,50.40
2022-07-28T03:12:28.178Z,50.87
2022-07-28T03:14:56.140Z,50.98
2022-07-28T03:17:23.667Z,50.65
2022-07-28T03:19:51.186Z,50.63
2022-07-28T03:22:18.753Z,51.32
2022-07-28T03:24:51.765Z,50.86
2022-07-28T03:27:22.818Z,50.89
2022-07-28T03:29:53.417Z,51.27
2022-07-28T03:32:22.578Z,51.72
2022-07-28T03:34:52.344Z,51.39
2022-07-28T03:37:24.400Z,50.95
2022-07-28T03:39:56.159Z,51.57
2022-07-28T03:42:23.943Z,51.10
2022-07-28T03:44:51.624Z,51.79
2022-07-28T03:47:22.812Z,51.27
2022-07-28T03:49:50.946Z,51.36
2022-07-28T03:52:19.032Z,51.82
2022-07-28T03:54:46.993Z,51.99
2022-07-28T03:57:16.075Z,51.71
2022-07-28T03:59:43.578Z,51.38
2022-07-28T04:02:11.137Z,51.44
2022-07-28T04:04:38.907Z,51.49
2022-07-28T04:07:06.400Z,51.79
2022-07-28T04:09:35.515Z,52.27
2022-07-28T04:12:03.000Z,52.05
2022-07-28T04:14:31.815Z,51.72
2022-07-28T04:16:59.333Z,52.01
2022-07-28T04:19:27.057Z,51.73
2022-07-28T04:21:54.549Z,51.64
2022-07-28T04:24:22.332Z,51.64
2022-07-28T04:26:49.809Z,51.83
2022-07-28T04:29:23.425Z,51.35
2022-07-28T04:31:56.189Z,51.91
2022-07-28T04:34:24.124Z,52.14
2022-07-28T04:36:52.092Z,51.96
2022-07-28T04:39:19.585Z,51.75
2022-07-28T04:41:47.061Z,51.73
2022-07-28T04:44:14.946Z,51.89
2022-07-28T04:46:42.737Z,51.48
2022-07-28T04:49:11.643Z,51.47
2022-07-28T04:51:39.193Z,51.35
2022-07-28T04:54:06.730Z,51.74
2022-07-28T04:56:34.202Z,51.42
2022-07-28T04:59:01.845Z,51.73
2022-07-28T05:01:31.415Z,51.83
2022-07-28T05:03:58.908Z,51.85
2022-07-28T05:06:27.792Z,51.51
2022-07-28T05:08:55.225Z,52.07
2022-07-28T05:11:22.680Z,52.13
2022-07-28T05:13:50.149Z,51.96
2022-07-28T05:16:17.662Z,51.53
2022-07-28T05:18:45.141Z,51.78
2022-07-28T05:21:12.733Z,51.80
2022-07-28T05:23:47.492Z,51.78
2022-07-28T05:26:15.588Z,51.63
2022-07-28T05:28:43.078Z,52.02
2022-07-28T05:31:10.562Z,51.63
2022-07-28T05:33:38.472Z,51.56
2022-07-28T05:36:06.770Z,51.83
2022-07-28T05:38:34.229Z,51.13
2022-07-28T05:41:03.000Z,51.17
2022-07-28T05:43:30.486Z,51.13
2022-07-28T05:45:57.999Z,51.12
2022-07-28T05:48:25.519Z,51.31
2022-07-28T05:50:54.312Z,51.37
2022-07-28T05:53:22.530Z,51.53
2022-07-28T05:56:00.813Z,51.15
2022-07-28T05:58:31.398Z,51.06
2022-07-28T06:01:00.802Z,50.86
2022-07-28T06:03:30.458Z,50.87
2022-07-28T06:05:58.352Z,50.11
2022-07-28T06:08:42.018Z,49.74
2022-07-28T06:11:11.404Z,50.05
2022-07-28T06:13:40.499Z,50.27
2022-07-28T06:16:13.159Z,50.15
2022-07-28T06:18:40.988Z,50.48
2022-07-28T06:21:08.630Z,49.76
2022-07-28T06:23:36.218Z,50.05
2022-07-28T06:26:03.955Z,49.58
2022-07-28T06:28:32.363Z,49.95
2022-07-28T06:31:01.244Z,49.85
2022-07-28T06:33:28.837Z,49.75
2022-07-28T06:35:57.809Z,49.07
2022-07-28T06:38:25.770Z,48.79
2022-07-28T06:40:53.445Z,48.46
2022-07-28T06:43:21.054Z,48.24
2022-07-28T06:45:48.669Z,48.57
2022-07-28T06:48:18.809Z,47.97
2022-07-28T06:50:46.374Z,47.77
2022-07-28T06:53:14.005Z,47.65
2022-07-28T06:55:41.573Z,47.67
2022-07-28T06:58:09.191Z,47.31
2022-07-28T07:00:36.789Z,47.41
2022-07-28T07:03:04.550Z,47.24
2022-07-28T07:05:33.410Z,46.98
2022-07-28T07:08:00.995Z,47.44
2022-07-28T07:10:28.556Z,47.24
2022-07-28T07:12:56.189Z,47.11
2022-07-28T07:15:23.783Z,46.76
2022-07-28T07:17:51.345Z,46.75
2022-07-28T07:20:18.986Z,46.88
2022-07-28T07:22:48.473Z,46.28
2022-07-28T07:25:17.802Z,46.66
2022-07-28T07:27:45.685Z,46.73
2022-07-28T07:30:14.670Z,46.36
2022-07-28T07:32:42.416Z,46.50
2022-07-28T07:35:10.441Z,46.29
2022-07-28T07:37:37.934Z,45.98
2022-07-28T07:40:08.452Z,46.29
2022-07-28T07:42:36.005Z,45.98
2022-07-28T07:45:03.605Z,46.13
2022-07-28T07:47:31.232Z,45.90
2022-07-28T07:50:00.069Z,45.91
2022-07-28T07:52:29.314Z,46.32
2022-07-28T07:54:56.819Z,46.21
2022-07-28T07:57:25.689Z,46.24
2022-07-28T07:59:53.264Z,46.23
2022-07-28T08:02:20.790Z,46.10
2022-07-28T08:04:48.319Z,46.18
2022-07-28T08:07:16.035Z,46.04
2022-07-28T08:09:43.502Z,45.57
2022-07-28T08:12:11.020Z,45.28
2022-07-28T08:14:39.898Z,45.31
2022-07-28T08:17:08.862Z,44.76
2022-07-28T08:19:36.366Z,44.71
2022-07-28T08:22:03.869Z,44.24
2022-07-28T08:24:33.279Z,44.47
2022-07-28T08:27:01.462Z,44.69
2022-07-28T08:29:28.969Z,44.58
2022-07-28T08:31:58.214Z,44.98
2022-07-28T08:34:31.285Z,44.19
2022-07-28T08:37:02.434Z,44.28
2022-07-28T08:39:30.203Z,44.42
2022-07-28T08:42:03.298Z,43.48
2022-07-28T08:44:41.837Z,43.51
2022-07-28T08:47:12.444Z,43.67
2022-07-28T08:49:42.258Z,43.43
2022-07-28T08:52:11.699Z,43.69
2022-07-28T08:54:42.793Z,43.19
2022-07-28T08:57:11.771Z,43.09
2022-07-28T08:59:39.835Z,42.55
2022-07-28T09:02:11.819Z,42.30
2022-07-28T09:04:39.921Z,42.29
2022-07-28T09:07:07.432Z,42.25
2022-07-28T09:09:35.137Z,42.04
2022-07-28T09:12:05.364Z,41.55
2022-07-28T09:14:33.762Z,42.07
2022-07-28T09:17:02.009Z,41.39
2022-07-28T09:19:34.289Z,41.32
2022-07-28T09:22:03.530Z,41.62
2022-07-28T09:24:35.444Z,41.05
2022-07-28T09:27:06.632Z,40.72
2022-07-28T09:29:35.846Z,41.24
2022-07-28T09:32:04.042Z,40.94
2022-07-28T09:34:40.468Z,41.43
2022-07-28T09:37:08.593Z,40.76
2022-07-28T09:39:38.051Z,40.47
2022-07-28T09:42:05.981Z,40.23
2022-07-28T09:44:33.587Z,40.37
2022-07-28T09:47:01.321Z,40.65
2022-07-28T09:49:43.498Z,40.14
2022-07-28T09:52:12.322Z,39.52
2022-07-28T09:54:41.176Z,40.08
2022-07-28T09:57:11.675Z,39.17
2022-07-28T09:59:50.493Z,39.61
2022-07-28T10:02:25.452Z,38.94
2022-07-28T10:04:55.493Z,38.86
2022-07-28T10:07:23.218Z,38.48
2022-07-28T10:09:58.163Z,38.50
2022-07-28T10:12:26.667Z,38.69
2022-07-28T10:14:56.168Z,37.93
2022-07-28T10:17:25.133Z,38.69
2022-07-28T10:19:54.358Z,37.38
2022-07-28T10:22:24.331Z,37.74
2022-07-28T10:24:53.962Z,37.87
2022-07-28T10:27:23.192Z,37.81
2022-07-28T10:29:55.797Z,37.84
2022-07-28T10:32:23.793Z,36.58
2022-07-28T10:34:52.984Z,37.04
2022-07-28T10:37:24.399Z,37.54
2022-07-28T10:39:58.717Z,36.22
2022-07-28T10:42:26.361Z,36.42
2022-07-28T10:44:54.022Z,36.87
2022-07-28T10:47:23.364Z,36.60
2022-07-28T10:49:51.903Z,37.00
2022-07-28T10:52:46.158Z,36.08
2022-07-28T10:55:20.450Z,36.28
2022-07-28T10:58:02.046Z,35.79
2022-07-28T11:00:55.416Z,35.50
2022-07-28T11:03:38.237Z,36.25
2022-07-28T11:06:27.417Z,34.94
2022-07-28T11:08:55.193Z,35.50
2022-07-28T11:11:46.608Z,35.07
2022-07-28T11:14:33.546Z,34.75
2022-07-28T11:17:23.936Z,34.39
2022-07-28T11:22:45.866Z,34.77
2022-07-28T11:25:18.646Z,34.11
2022-07-28T11:28:04.456Z,33.93
2022-07-28T11:30:55.220Z,33.93
2022-07-28T11:33:24.712Z,34.12
2022-07-28T11:35:56.988Z,34.99
2022-07-28T11:38:25.051Z,34.18
2022-07-28T11:40:54.112Z,34.28
2022-07-28T11:43:38.879Z,34.52
2022-07-28T11:46:37.520Z,33.86
2022-07-28T11:49:16.644Z,33.60
2022-07-28T11:52:15.371Z,33.36
2022-07-28T11:54:49.111Z,34.10
2022-07-28T11:57:19.534Z,34.16
2022-07-28T11:59:50.693Z,34.34
2022-07-28T12:02:19.726Z,34.31
2022-07-28T12:04:55.879Z,34.06
2022-07-28T12:07:29.032Z,33.80
2022-07-28T12:09:58.407Z,33.76
2022-07-28T12:12:28.025Z,33.76
2022-07-28T12:15:00.992Z,33.30
2022-07-28T12:17:35.625Z,33.17
2022-07-28T12:20:05.779Z,33.96
2022-07-28T12:22:39.113Z,33.48
2022-07-28T12:25:13.440Z,34.37
2022-07-28T12:27:41.516Z,33.10
2022-07-28T12:30:22.378Z,32.33
2022-07-28T12:32:52.864Z,32.65
2022-07-28T12:35:21.227Z,32.07
2022-07-28T12:37:49.900Z,32.19
2022-07-28T12:40:18.568Z,32.12
2022-07-28T12:42:55.158Z,31.95
2022-07-28T12:45:24.226Z,32.35
2022-07-28T12:47:51.802Z,32.18
2022-07-28T12:50:20.615Z,32.37
2022-07-28T12:53:03.394Z,31.80
2022-07-28T12:55:32.227Z,32.32
2022-07-28T12:58:00.325Z,32.03
2022-07-28T13:00:32.069Z,31.91
2022-07-28T13:03:01.356Z,31.14
2022-07-28T13:05:54.526Z,30.76
2022-07-28T13:08:22.485Z,32.02
2022-07-28T13:10:52.339Z,30.88
2022-07-28T13:13:24.629Z,31.33
2022-07-28T13:16:15.967Z,31.09
2022-07-28T13:18:46.452Z,31.67
2022-07-28T13:21:38.263Z,30.88
2022-07-28T13:24:06.622Z,32.19
2022-07-28T13:26:34.214Z,31.14
2022-07-28T13:29:02.103Z,30.04
2022-07-28T13:31:33.556Z,32.13
2022-07-28T13:34:01.276Z,30.27
2022-07-28T13:36:29.060Z,30.09
2022-07-28T13:38:56.777Z,30.22
2022-07-28T13:41:24.496Z,30.10
2022-07-28T13:43:52.197Z,30.21
2022-07-28T13:46:20.249Z,30.36
2022-07-28T13:48:57.686Z,30.35
2022-07-28T13:51:27.328Z,29.42
2022-07-28T13:53:55.505Z,29.58
2022-07-28T13:56:24.749Z,29.44
2022-07-28T13:58:52.312Z,31.43
2022-07-28T14:01:19.928Z,30.05
2022-07-28T14:03:55.486Z,29.27
2022-07-28T14:06:26.519Z,29.04
2022-07-28T14:08:57.638Z,29.74
2022-07-28T14:11:34.544Z,29.48
2022-07-28T14:14:06.238Z,29.33
2022-07-28T14:16:34.118Z,29.65
2022-07-28T14:19:03.150Z,30.09
2022-07-28T14:21:30.764Z,29.39
2022-07-28T14:24:01.229Z,29.41
2022-07-28T14:26:36.304Z,29.83
2022-07-28T14:29:04.831Z,30.24
2022-07-28T14:31:39.418Z,29.74
2022-07-28T14:34:08.408Z,30.06
2022-07-28T14:36:36.050Z,29.71
2022-07-28T14:39:06.674Z,30.11
2022-07-28T14:41:50.136Z,29.50
2022-07-28T14:44:24.598Z,29.83
2022-07-28T14:46:54.849Z,29.16
2022-07-28T14:49:24.078Z,29.09
2022-07-28T14:51:52.034Z,29.43
2022-07-28T14:54:19.933Z,29.07
2022-07-28T14:56:47.646Z,29.03
2022-07-28T14:59:17.281Z,29.51
2022-07-28T15:01:44.924Z,29.72
2022-07-28T15:04:13.875Z,29.31
2022-07-28T15:06:43.213Z,29.56
2022-07-28T15:09:10.788Z,29.73
2022-07-28T15:11:39.663Z,29.43
2022-07-28T15:14:07.204Z,29.59
2022-07-28T15:16:34.846Z,29.34
2022-07-28T15:19:02.472Z,29.99
2022-07-28T15:21:34.343Z,30.32
2022-07-28T15:24:05.919Z,29.88
2022-07-28T15:26:33.472Z,29.99
2022-07-28T15:29:00.982Z,30.22
2022-07-28T15:31:30.281Z,30.04
2022-07-28T15:33:58.324Z,30.39
2022-07-28T15:36:26.165Z,31.31
2022-07-28T15:38:54.327Z,31.06
2022-07-28T15:41:23.180Z,30.67
2022-07-28T15:43:50.677Z,30.45
2022-07-28T15:46:18.333Z,30.66
2022-07-28T15:48:47.080Z,30.57
2022-07-28T15:51:14.690Z,30.96
2022-07-28T15:53:42.212Z,30.36
2022-07-28T15:56:09.816Z,31.95
2022-07-28T15:58:38.890Z,30.22
2022-07-28T16:01:07.319Z,30.05
2022-07-28T16:03:34.908Z,29.82
2022-07-28T16:06:02.489Z,30.65
2022-07-28T16:08:30.279Z,30.64
2022-07-28T16:10:57.967Z,30.41
2022-07-28T16:13:37.165Z,30.97
2022-07-28T16:16:09.483Z,31.14
2022-07-28T16:18:38.365Z,30.97
2022-07-28T16:21:06.858Z,30.73
2022-07-28T16:23:35.031Z,30.96
2022-07-28T16:26:09.252Z,31.04
2022-07-28T16:28:37.189Z,31.16
2022-07-28T16:31:07.521Z,31.37
2022-07-28T16:33:36.625Z,31.11
2022-07-28T16:36:04.831Z,31.19
2022-07-28T16:38:32.438Z,32.22
2022-07-28T16:41:02.437Z,31.57
2022-07-28T16:43:30.464Z,31.35
2022-07-28T16:45:58.141Z,31.58
2022-07-28T16:48:25.806Z,31.48
2022-07-28T16:50:54.917Z,31.07
2022-07-28T16:53:22.621Z,31.01
2022-07-28T16:55:50.300Z,31.22
2022-07-28T16:58:18.518Z,31.27
2022-07-28T17:00:46.089Z,31.58
2022-07-28T17:03:13.790Z,31.09
2022-07-28T17:05:41.376Z,31.35
2022-07-28T17:08:11.300Z,31.03
2022-07-28T17:10:38.895Z,31.27
2022-07-28T17:13:07.678Z,30.84
2022-07-28T17:15:37.884Z,30.51
2022-07-28T17:18:05.878Z,30.50
2022-07-28T17:20:35.162Z,30.68
2022-07-28T17:23:03.963Z,30.85
2022-07-28T17:25:59.297Z,30.68
2022-07-28T17:28:20.399Z,30.90
2022-07-28T17:30:48.094Z,31.17
2022-07-28T17:33:15.871Z,30.81
2022-07-28T17:35:43.885Z,30.96
2022-07-28T17:38:12.579Z,31.17
2022-07-28T17:40:42.929Z,31.02
2022-07-28T17:43:11.876Z,30.82
2022-07-28T17:45:39.546Z,31.00
2022-07-28T17:48:07.347Z,31.08
2022-07-28T17:50:34.863Z,31.32
2022-07-28T17:53:02.575Z,30.83
2022-07-28T17:55:55.753Z,30.93
2022-07-28T17:58:28.830Z,31.41
2022-07-28T18:00:58.719Z,31.35
2022-07-28T18:03:57.020Z,31.34
2022-07-28T18:06:25.411Z,31.49
2022-07-28T18:08:52.962Z,31.77
2022-07-28T18:11:20.681Z,31.65
2022-07-28T18:14:04.534Z,31.76
2022-07-28T18:16:33.059Z,31.42
2022-07-28T18:19:00.570Z,31.49
2022-07-28T18:21:28.125Z,31.66
2022-07-28T18:23:55.617Z,32.12
2022-07-28T18:26:23.170Z,31.98
2022-07-28T18:28:52.075Z,32.28
2022-07-28T18:31:19.628Z,32.16
2022-07-28T18:33:47.149Z,32.41
2022-07-28T18:36:14.637Z,32.17
2022-07-28T18:38:42.206Z,32.23
2022-07-28T18:41:09.676Z,32.66
2022-07-28T18:43:37.312Z,32.58
2022-07-28T18:46:06.373Z,33.10
2022-07-28T18:48:33.979Z,32.89
2022-07-28T18:51:01.569Z,33.26
2022-07-28T18:53:29.213Z,33.01
2022-07-28T18:55:56.750Z,33.18
2022-07-28T18:58:24.331Z,33.28
2022-07-28T19:00:51.854Z,33.46
2022-07-28T19:03:20.736Z,33.38
2022-07-28T19:05:48.304Z,33.82
2022-07-28T19:08:15.827Z,33.91
2022-07-28T19:10:44.951Z,33.57
2022-07-28T19:13:13.207Z,33.88
2022-07-28T19:15:41.111Z,33.91
2022-07-28T19:18:11.642Z,33.68
2022-07-28T19:20:41.226Z,34.11
2022-07-28T19:23:08.689Z,34.40
2022-07-28T19:25:37.615Z,34.48
2022-07-28T19:28:05.367Z,34.91
2022-07-28T19:30:33.141Z,34.68
2022-07-28T19:33:00.959Z,34.97
2022-07-28T19:35:28.477Z,35.22
2022-07-28T19:37:59.708Z,35.53
2022-07-28T19:40:29.556Z,35.06
2022-07-28T19:42:57.429Z,35.14
2022-07-28T19:45:25.188Z,35.63
2022-07-28T19:47:54.450Z,35.78
2022-07-28T19:50:22.011Z,35.68
2022-07-28T19:52:49.936Z,35.96
2022-07-28T19:55:19.040Z,35.81
2022-07-28T19:57:47.291Z,36.03
2022-07-28T20:00:17.326Z,35.73
2022-07-28T20:02:45.765Z,36.11
2022-07-28T20:05:13.676Z,35.72
2022-07-28T20:07:41.212Z,36.21
2022-07-28T20:10:09.474Z,36.10
2022-07-28T20:12:38.462Z,35.90
2022-07-28T20:15:06.617Z,35.75
2022-07-28T20:17:41.190Z,36.01
2022-07-28T20:20:11.651Z,35.44
2022-07-28T20:22:39.899Z,35.81
2022-07-28T20:25:09.243Z,35.88
2022-07-28T20:27:40.611Z,35.85
2022-07-28T20:30:09.605Z,35.78
2022-07-28T20:32:37.773Z,35.87
2022-07-28T20:35:06.353Z,35.94
2022-07-28T20:37:36.620Z,35.98
2022-07-28T20:40:06.122Z,36.15
2022-07-28T20:42:33.688Z,35.96
2022-07-28T20:45:02.543Z,36.27
2022-07-28T20:47:32.495Z,35.89
2022-07-28T20:50:00.198Z,36.19
2022-07-28T20:52:27.776Z,36.31
2022-07-28T20:54:55.464Z,35.99
2022-07-28T20:57:23.097Z,36.11
2022-07-28T20:59:52.104Z,35.91
2022-07-28T21:02:21.414Z,36.08
2022-07-28T21:04:50.526Z,35.76
2022-07-28T21:07:59.452Z,36.02
2022-07-28T21:10:07.093Z,35.85
2022-07-28T21:12:36.441Z,36.09
2022-07-28T21:15:04.152Z,35.84
2022-07-28T21:17:33.064Z,36.78
2022-07-28T21:20:00.556Z,36.47
2022-07-28T21:22:28.474Z,36.30
2022-07-28T21:24:56.188Z,36.30
2022-07-28T21:27:24.747Z,36.61
2022-07-28T21:32:17.913Z,35.91
2022-07-28T21:34:47.018Z,36.42
2022-07-28T21:37:14.885Z,36.37
2022-07-28T21:39:42.792Z,36.29
2022-07-28T21:42:10.375Z,36.78
2022-07-28T21:44:38.267Z,36.34
2022-07-28T21:47:06.127Z,36.49
2022-07-28T21:49:33.695Z,36.48
2022-07-28T21:52:02.684Z,36.42
2022-07-28T21:54:30.236Z,36.59
2022-07-28T21:56:58.177Z,36.91
2022-07-28T21:59:25.744Z,36.91
2022-07-28T22:01:53.410Z,36.73
2022-07-28T22:04:21.535Z,37.18
2022-07-28T22:06:49.425Z,37.09
2022-07-28T22:09:18.312Z,37.08
2022-07-28T22:11:46.114Z,37.02
2022-07-28T22:14:14.111Z,37.11
2022-07-28T22:16:41.899Z,37.23
2022-07-28T22:19:11.755Z,37.32
2022-07-28T22:21:39.493Z,37.51
2022-07-28T22:24:08.152Z,37.50
2022-07-28T22:26:37.115Z,37.38
2022-07-28T22:29:04.752Z,37.43
2022-07-28T22:31:33.712Z,37.21
2022-07-28T22:34:01.239Z,36.95
2022-07-28T22:36:28.905Z,37.13
2022-07-28T22:38:56.632Z,37.17
2022-07-28T22:41:24.231Z,37.40
2022-07-28T22:43:53.170Z,37.45
2022-07-28T22:46:20.774Z,37.70
2022-07-28T22:48:48.445Z,37.62
2022-07-28T22:51:16.725Z,37.89
2022-07-28T22:53:50.242Z,37.96
2022-07-28T22:56:20.693Z,37.91
2022-07-28T22:59:00.574Z,37.84
2022-07-28T23:01:28.288Z,37.86
2022-07-28T23:03:56.154Z,37.83
2022-07-28T23:06:23.995Z,37.65
2022-07-28T23:08:51.572Z,37.97
2022-07-28T23:11:19.389Z,37.79
2022-07-28T23:13:47.168Z,38.07
2022-07-28T23:16:16.979Z,37.80
2022-07-28T23:18:45.451Z,38.08
2022-07-28T23:21:13.221Z,38.08
2022-07-28T23:23:40.859Z,38.14
2022-07-28T23:26:08.429Z,38.12
2022-07-28T23:28:37.135Z,38.10
2022-07-28T23:31:05.180Z,38.28
2022-07-28T23:33:56.372Z,38.48
2022-07-28T23:36:26.817Z,38.41
2022-07-28T23:38:56.054Z,38.47
2022-07-28T23:41:23.705Z,38.34
2022-07-28T23:43:51.237Z,38.28
2022-07-28T23:46:18.911Z,38.31
2022-07-28T23:48:47.984Z,38.34
2022-07-28T23:51:15.694Z,38.26
2022-07-28T23:53:43.415Z,38.31
2022-07-28T23:56:11.141Z,38.18
2022-07-28T23:58:38.630Z,38.47
